Latest Weather Observations for Mount Ginini

IDN60801

Issued at 8:32 pm EDT Thursday 23 February 2017 (issued every 30 minutes, with the page automatically refreshed every 10 minutes)

About weather observations | Map of weather stations | Latest weather observations for NSW | Other Formats
Station Details ID: 070349 Name: MOUNT GININI AWS Lat: -35.53 Lon: 148.77 Height: 1760.0 m
Data from the previous 72 hours. | See also: Recent months at Mount Ginini
Date/Time
EDT
Temp
°C
App
Temp
°C
Dew
Point
°C
Rel
Hum
%
Delta-T
°C
Wind Press
QNH
hPa
Press
MSL
hPa
Rain since
9am
mm
Dir  Spd
km/h
Gust
km/h
Spd
kts
Gust
kts
23/08:30pm 18.1 14.5 0.3 30 8.6 WSW 9 20 5 11 - - 0.0
23/08:00pm 19.0 15.4 0.6 29 9.0 W 9 20 5 11 - - 0.0
23/07:30pm 20.3 16.8 1.2 28 9.5 W 9 20 5 11 - - 0.0
23/07:00pm 21.6 17.0 1.3 26 10.2 W 15 28 8 15 - - 0.0
23/06:30pm 22.8 18.6 1.8 25 10.8 W 13 32 7 17 - - 0.0
23/06:00pm 23.7 20.0 4.6 29 10.3 W 13 28 7 15 - - 0.0
23/05:30pm 21.9 17.7 4.0 31 9.5 WNW 15 32 8 17 - - 0.0
23/05:00pm 24.1 19.5 5.5 30 10.3 W 19 39 10 21 - - 0.0
23/04:30pm 24.5 20.2 7.2 33 9.8 WNW 19 35 10 19 - - 0.0
23/04:00pm 24.2 20.2 6.5 32 9.9 WNW 17 33 9 18 - - 0.0
23/03:30pm 24.7 21.1 6.9 32 10.1 WNW 15 32 8 17 - - 0.0
23/03:00pm 24.4 20.1 5.2 29 10.6 W 17 33 9 18 - - 0.0
23/02:30pm 23.5 18.5 4.5 29 10.3 WNW 20 37 11 20 - - 0.0
23/02:00pm 23.2 18.6 5.6 32 9.7 WNW 19 35 10 19 - - 0.0
23/01:30pm 22.9 19.0 7.1 36 8.9 WNW 17 33 9 18 - - 0.0
23/01:00pm 22.7 20.2 9.8 44 7.6 NW 13 32 7 17 - - 0.0
23/12:30pm 21.9 18.5 10.4 48 6.8 NW 19 35 10 19 - - 0.0
23/12:00pm 20.7 17.4 9.6 49 6.5 WNW 17 32 9 17 - - 0.0
23/11:30am 21.0 18.7 11.9 56 5.5 WNW 15 26 8 14 - - 0.0
23/11:00am 18.9 15.5 10.5 58 4.9 WNW 19 35 10 19 - - 0.0
23/10:30am 18.4 15.0 10.5 60 4.6 WNW 19 33 10 18 - - 0.0
23/10:00am 17.5 14.0 10.1 62 4.3 WNW 19 35 10 19 - - 0.0
23/09:30am 16.8 13.0 9.2 61 4.3 WNW 19 35 10 19 - - 0.0
23/09:00am 15.8 11.8 8.3 61 4.2 WNW 19 33 10 18 - - 0.0
23/08:30am 15.2 10.9 8.0 62 4.0 NW 20 32 11 17 - - 0.0
23/08:00am 14.5 10.8 7.8 64 3.7 NW 17 32 9 17 - - 0.0
23/07:30am 14.1 9.9 7.4 64 3.6 WNW 19 33 10 18 - - 0.0
23/07:00am 13.8 9.5 7.1 64 3.6 NW 19 32 10 17 - - 0.0
23/06:30am 13.9 9.5 6.7 62 3.8 NW 19 32 10 17 - - 0.0
23/06:00am 13.8 9.7 6.2 60 4.0 NW 17 26 9 14 - - 0.0
23/05:30am 14.3 9.8 5.9 57 4.4 NW 19 32 10 17 - - 0.0
23/05:00am 14.6 9.7 5.1 53 4.9 NW 20 37 11 20 - - 0.0
23/04:30am 14.5 9.6 3.9 49 5.4 NW 19 32 10 17 - - 0.0
23/04:00am 14.8 9.6 3.6 47 5.6 NW 20 35 11 19 - - 0.0
23/03:30am 15.4 9.7 2.9 43 6.2 NW 22 37 12 20 - - 0.0
23/03:00am 15.7 10.3 2.2 40 6.6 NW 20 35 11 19 - - 0.0
23/02:30am 16.3 10.1 2.0 38 7.0 NW 24 39 13 21 - - 0.0
23/02:00am 16.0 10.2 2.1 39 6.8 NW 22 39 12 21 - - 0.0
23/01:30am 16.0 10.5 1.7 38 7.0 NW 20 35 11 19 - - 0.0
23/01:00am 15.8 10.5 1.9 39 6.8 NNW 19 41 10 22 - - 0.0
23/12:30am 16.1 10.5 1.0 36 7.3 NW 20 35 11 19 - - 0.0
23/12:00am 15.9 10.3 0.9 36 7.2 NW 20 33 11 18 - - 0.0
 
Date/Time
EDT
Temp
°C
App
Temp
°C
Dew
Point
°C
Rel
Hum
%
Delta-T
°C
Wind Press
QNH
hPa
Press
MSL
hPa
Rain since
9am
mm
Dir  Spd
km/h
Gust
km/h
Spd
kts
Gust
kts
22/11:30pm 16.0 10.6 1.3 37 7.1 NW 19 37 10 20 - - 0.0
22/11:00pm 16.2 10.8 1.5 37 7.2 NW 19 35 10 19 - - 0.0
22/10:30pm 16.2 11.3 1.9 38 7.0 NW 17 30 9 16 - - 0.0
22/10:00pm 15.7 11.1 1.8 39 6.8 NNW 15 26 8 14 - - 0.0
22/09:30pm 16.0 11.2 2.4 40 6.7 NW 17 28 9 15 - - 0.0
22/09:00pm 15.8 11.4 2.9 42 6.4 NW 15 26 8 14 - - 0.0
22/08:30pm 16.0 11.6 2.8 41 6.6 NW 15 26 8 14 - - 0.0
22/08:00pm 16.2 12.2 2.6 40 6.8 NW 13 24 7 13 - - 0.0
22/07:30pm 17.3 13.0 3.2 39 7.2 NW 15 26 8 14 - - 0.0
22/07:00pm 18.7 15.4 4.8 40 7.3 WNW 11 22 6 12 - - 0.0
22/06:30pm 19.7 16.1 5.0 38 7.8 WNW 13 26 7 14 - - 0.0
22/06:00pm 20.8 18.0 5.2 36 8.4 WNW 9 20 5 11 - - 0.0
22/05:30pm 21.1 17.9 5.1 35 8.6 WNW 11 24 6 13 - - 0.0
22/05:00pm 20.9 17.2 4.5 34 8.7 WNW 13 26 7 14 - - 0.0
22/04:30pm 21.1 17.3 3.8 32 9.1 NW 13 30 7 16 - - 0.0
22/04:00pm 20.9 17.0 5.3 36 8.4 NW 15 30 8 16 - - 0.0
22/03:30pm 21.2 17.5 4.7 34 8.8 NW 13 30 7 16 - - 0.0
22/03:00pm 21.0 17.3 6.2 38 8.1 NW 15 28 8 15 - - 0.0
22/02:30pm 20.7 17.4 6.3 39 7.9 WNW 13 30 7 16 - - 0.0
22/02:00pm 20.0 16.6 6.0 40 7.6 NW 13 28 7 15 - - 0.0
22/01:30pm 19.6 16.4 6.7 43 7.1 NW 13 24 7 13 - - 0.0
22/01:00pm 19.4 16.3 7.2 45 6.8 NW 13 26 7 14 - - 0.0
22/12:30pm 17.7 13.5 5.6 45 6.5 NNW 17 32 9 17 - - 0.0
22/12:00pm 17.3 13.9 5.9 47 6.1 NNW 13 28 7 15 - - 0.0
22/11:30am 16.2 12.1 4.6 46 6.0 NNW 15 30 8 16 - - 0.0
22/11:00am 16.6 13.2 5.9 49 5.7 NNW 13 30 7 16 - - 0.0
22/10:30am 15.8 11.9 5.4 50 5.5 NNW 15 35 8 19 - - 0.0
22/10:00am 15.4 11.7 4.5 48 5.6 NNW 13 30 7 16 - - 0.0
22/09:30am 14.7 11.8 6.5 58 4.4 N 11 30 6 16 - - 0.0
22/09:00am 13.4 10.8 7.8 69 3.0 N 11 22 6 12 - - 0.0
22/08:30am 11.7 9.0 9.1 84 1.4 N 13 24 7 13 - - 0.0
22/08:00am 10.5 8.0 9.6 94 0.5 N 13 22 7 12 - - 0.0
22/07:30am 8.9 6.0 8.3 96 0.3 N 13 20 7 11 - - 0.0
22/07:00am 8.4 5.9 8.0 97 0.2 N 11 20 6 11 - - 0.0
22/06:30am 8.3 5.7 7.9 97 0.2 N 11 19 6 10 - - 0.0
22/06:00am 8.3 5.3 7.9 97 0.2 N 13 20 7 11 - - 0.0
22/05:30am 8.4 5.9 8.0 97 0.2 N 11 17 6 9 - - 0.0
22/05:00am 8.2 5.6 7.8 97 0.2 NNE 11 17 6 9 - - 0.0
22/04:30am 7.6 4.9 7.2 97 0.2 NNE 11 17 6 9 - - 0.0
22/04:00am 8.0 5.4 7.6 97 0.2 NE 11 17 6 9 - - 0.0
22/03:30am 8.0 5.7 7.6 97 0.2 ENE 9 15 5 8 - - 0.0
22/03:00am 8.2 6.0 7.8 97 0.2 ENE 9 17 5 9 - - 0.0
22/02:30am 8.2 5.6 7.8 97 0.2 ENE 11 19 6 10 - - 0.0
22/02:00am 8.2 5.2 7.8 97 0.2 ENE 13 20 7 11 - - 0.0
22/01:30am 8.3 5.3 7.9 97 0.2 ENE 13 22 7 12 - - 0.0
22/01:00am 8.2 4.5 7.8 97 0.2 ENE 17 24 9 13 - - 0.0
22/12:30am 8.3 5.0 7.9 97 0.2 ENE 15 22 8 12 - - 0.0
22/12:00am 8.4 5.1 8.0 97 0.2 ENE 15 20 8 11 - - 0.0
 
Date/Time
EDT
Temp
°C
App
Temp
°C
Dew
Point
°C
Rel
Hum
%
Delta-T
°C
Wind Press
QNH
hPa
Press
MSL
hPa
Rain since
9am
mm
Dir  Spd
km/h
Gust
km/h
Spd
kts
Gust
kts
21/11:30pm 8.5 4.8 8.1 97 0.2 ENE 17 26 9 14 - - 0.0
21/11:00pm 8.7 5.8 8.3 97 0.2 ENE 13 24 7 13 - - 0.0
21/10:30pm 8.8 5.2 8.4 97 0.2 ENE 17 30 9 16 - - 0.0
21/10:00pm 9.0 6.2 8.4 96 0.3 NE 13 22 7 12 - - 0.0
21/09:30pm 8.9 6.0 8.1 95 0.4 NE 13 24 7 13 - - 0.0
21/09:00pm 9.3 6.4 8.2 93 0.6 NE 13 22 7 12 - - 0.0
21/08:30pm 10.4 6.7 2.5 58 3.8 NE 11 20 6 11 - - 0.0
21/08:00pm 11.3 7.3 -2.1 39 5.8 NNE 9 15 5 8 - - 0.0
21/07:30pm 12.1 8.2 -1.4 39 6.0 NNE 9 15 5 8 - - 0.0
21/07:00pm 13.4 9.6 -0.6 38 6.4 NNE 9 17 5 9 - - 0.0
21/06:30pm 14.4 10.9 -1.2 34 7.1 NNE 7 19 4 10 - - 0.0
21/06:00pm 15.3 12.2 -0.1 35 7.2 NNE 6 13 3 7 - - 0.0
21/05:30pm 15.5 12.3 0.5 36 7.1 NE 7 17 4 9 - - 0.0
21/05:00pm 16.1 12.9 0.7 35 7.4 N 7 19 4 10 - - 0.0
21/04:30pm 16.4 13.4 1.7 37 7.2 N 7 17 4 9 - - 0.0
21/04:00pm 16.6 13.7 1.5 36 7.4 NNW 6 13 3 7 - - 0.0
21/03:30pm 16.7 13.9 2.0 37 7.3 W 6 15 3 8 - - 0.0
21/03:00pm 16.1 13.6 1.8 38 7.0 NNW 4 15 2 8 - - 0.0
21/02:30pm 15.3 12.3 1.8 40 6.6 WSW 7 15 4 8 - - 0.0
21/02:00pm 15.3 12.6 2.8 43 6.2 NNE 6 13 3 7 - - 0.0
21/01:30pm 14.5 11.9 3.0 46 5.7 NNW 6 15 3 8 - - 0.0
21/01:00pm 13.4 10.7 2.6 48 5.3 NW 6 13 3 7 - - 0.0
21/12:30pm 13.9 11.3 3.1 48 5.3 NW 6 15 3 8 - - 0.0
21/12:00pm 11.8 8.5 0.3 45 5.3 NE 7 15 4 8 - - 0.0
21/11:30am 10.8 7.6 -0.3 46 5.0 NNE 6 17 3 9 - - 0.0
21/11:00am 9.8 6.6 -0.4 49 4.5 NE 6 13 3 7 - - 0.0
21/10:30am 9.8 6.7 0.4 52 4.2 ENE 6 19 3 10 - - 0.0
21/10:00am 9.3 6.5 -0.6 50 4.4 ENE 4 11 2 6 - - 0.0
21/09:30am 7.8 4.2 -2.0 50 4.1 ENE 7 13 4 7 - - 0.0
21/09:00am 7.9 5.0 -1.1 53 3.9 NE 4 9 2 5 - - 0.2
21/08:30am 6.3 2.9 -2.3 54 3.5 NE 6 9 3 5 - - 0.2
21/08:00am 5.4 1.9 -2.7 56 3.3 NE 6 9 3 5 - - 0.2
21/07:30am 4.3 1.6 -2.5 61 2.7 ENE 2 4 1 2 - - 0.2
21/07:00am 2.8 0.1 -2.7 67 2.2 NE 2 6 1 3 - - 0.2
21/06:30am 2.0 -1.0 1.0 93 0.4 SSW 6 11 3 6 - - 0.2
21/06:00am 2.1 -1.0 1.1 93 0.4 SW 7 11 4 6 - - 0.2
21/05:30am 2.0 -1.5 1.0 93 0.4 SSW 9 15 5 8 - - 0.2
21/05:00am 2.2 -1.3 1.3 94 0.4 SSW 9 15 5 8 - - 0.2
21/04:30am 2.3 -1.9 1.4 94 0.4 SSW 13 19 7 10 - - 0.2
21/04:00am 2.2 -2.1 1.3 94 0.4 SSW 13 17 7 9 - - 0.2
21/03:30am 2.4 -1.8 1.5 94 0.4 SSW 13 19 7 10 - - 0.2
21/03:00am 2.1 -2.2 1.2 94 0.4 SW 13 19 7 10 - - 0.2
21/02:30am 2.2 -2.1 1.3 94 0.4 SW 13 19 7 10 - - 0.2
21/02:00am 2.4 -1.8 1.4 93 0.4 SW 13 19 7 10 - - 0.2
21/01:30am 2.3 -2.3 1.3 93 0.4 SSW 15 19 8 10 - - 0.2
21/01:00am 2.3 -2.0 1.3 93 0.4 SW 13 17 7 9 - - 0.2
21/12:30am 2.4 -1.8 1.4 93 0.4 SW 13 19 7 10 - - 0.2
21/12:00am 2.7 -1.9 1.7 93 0.4 SW 15 20 8 11 - - 0.2
 
Date/Time
EDT
Temp
°C
App
Temp
°C
Dew
Point
°C
Rel
Hum
%
Delta-T
°C
Wind Press
QNH
hPa
Press
MSL
hPa
Rain since
9am
mm
Dir  Spd
km/h
Gust
km/h
Spd
kts
Gust
kts
20/11:30pm 2.7 -1.9 1.5 92 0.5 SW 15 20 8 11 - - 0.2
20/11:00pm 2.7 -1.5 1.7 93 0.4 WSW 13 20 7 11 - - 0.2
20/10:30pm 2.6 -1.6 1.6 93 0.4 WSW 13 22 7 12 - - 0.2
20/10:00pm 2.9 -2.6 2.0 94 0.4 WSW 20 32 11 17 - - 0.2
20/09:30pm 2.8 -2.1 1.8 93 0.4 WSW 17 28 9 15 - - 0.2
20/09:00pm 3.1 -1.1 1.6 90 0.7 SW 13 22 7 12 - - 0.2

Other Formats:

Comma delimited format used in spreadsheet applications
http://www.bom.gov.au/fwo/IDN60801/IDN60801.95925.axf

JavaScript Object Notation format (JSON) in row-major order
http://www.bom.gov.au/fwo/IDN60801/IDN60801.95925.json